Airfield :
LOGIN :

Register | Disclaimer

   EN    FR    IT 

 










Legend :    VFR   Marginal VFR   IFR   Intensive IFR   Very Intensive IFR
Visi :
Ceiling :
>= 8 km
>= 3000ft
5 to 8 km
1000 to 3000 ft
1500m to 5 km
500 to 1000 ft
800 to 1500m
200 to 500 ft
< 800m
< 200 ft
Symbols :   Thunderstorms  Fog  Heavy snow  Heavy precipitations  Wind > 20 kt
SIGMETs :     Misc.  Thunderstorms  Icing  Turbulence  Mountain Waves  Volcanic Ashes







- Airport Elevation : 20 ft


EBFN - Koksijde

CURRENT METAR :
  • 270225Z AUTO 33006KT 9999 OVC041/// 14/09 Q1011 BLU

EXPIRED METARs :
  • 270155Z AUTO 33006KT 9999 BKN041/// BKN074/// 13/09 Q1011 BLU
  • 270125Z AUTO 32007KT 9999 BKN041/// 14/11 Q1011 BLU
  • 270055Z AUTO 29006KT 5000 FEW050/// BKN083/// 13/12 Q1011 WHT
  • 270045Z AUTO 29007KT 4800 FEW007/// SCT052/// BKN083/// 13/12 Q1011 GRN
  • 270025Z AUTO 30009KT 5000 SCT007/// BKN053/// 14/12 Q1011 GRN
  • 262355Z AUTO 33004KT 7000 -DZ OVC004/// 14/13 Q1011 YLO

TAF TAF EBFN
Valid from the 26 at 19:00 until the 27 at 07:00 UTC


261541Z 2619/2707 24017KT 9999 BKN012
TEMPO 2619/2623 6000 -RA BKN010
PROB30
TEMPO 2619/2623 3500 RADZ BKN006
BECMG 2623/2701 31007KT 9999 SCT030 SCT300
BECMG 2705/2707 27005KT
No reported NOTAMs for that airfield.



MET'MAP, your aeronautical weather chart ! - Copyright ORBIFLY December 2007 - Disclaimer

ORBIFLY MET'MAP TEAM :

Programming & Development : Alexandra Zaïnal
Concept & Development : Baudouin d'Aumeries
Co-Development & Prog : Marc-Olivier Méhu
Technical & hardware support : Manuel Goepfert

Contact : metmap@orbifly.com




SOURCES & CREDITS :

   NOAA